CheckWX is a tool to help pilots better visualize weather data.  It is not intended as a substitute for an official pre-flight weather briefing.

08:48:47 UTC

KASE METAR
Aspen-Pitkin Co / Sardy Field Airport
Aspen, Colorado, USA
Current

56 mins ago

KASE 070753Z AUTO 17007KT 10SM CLR M08/M11 A3029 RMK AO2 SLP253 T10781111
Observed
Dec-7 @ 07:53 UTC
Wind
  • 170° at 7 KTS
Visibility
10 SM
Flight Rules
VFR
Cloud Levels
  • Clear skies
Temperature
-8°C / 18°F
Dewpoint
-11°C / 12°F
Humidity
79%
Altimeter
30.29" Hg
Pressure
1025.72 hPa
Previous

2 hours ago

KASE 070653Z AUTO 16006KT 10SM CLR M07/M10 A3031 RMK AO2 SLP260 T10671100 400441094
Observed
Dec-7 @ 06:53 UTC
Wind
  • 160° at 6 KTS
Visibility
10 SM
Flight Rules
VFR
Cloud Levels
  • Clear skies
Temperature
-7°C / 19°F
Dewpoint
-10°C / 14°F
Humidity
79%
Altimeter
30.31" Hg
Pressure
1026.42 hPa
Previous

3 hours ago

KASE 070553Z AUTO 20007KT 10SM CLR M08/M11 A3031 RMK AO2 SLP272 T10781106 11017 21083 58002
Observed
Dec-7 @ 05:53 UTC
Wind
  • 200° at 7 KTS
Visibility
10 SM
Flight Rules
VFR
Cloud Levels
  • Clear skies
Temperature
-8°C / 18°F
Dewpoint
-11°C / 12°F
Humidity
79%
Altimeter
30.31" Hg
Pressure
1026.42 hPa